Automated Weather Station

Magsaysay, Infanta, Quezon


Readings

as of November 11, 2016 04:01 PM
Wind Speed
3.4 mm
Rainfall Amount
0.14 mm
Rainfall Intensity
11.3 mm
Air Temperature
mm
Wind Direction
96 mm
Air Humidity
97.7 mm

Data Source: PREDICT (Advanced Science and Technology Institute)

12 HOUR DATA

PREVIOUS DATA

From
To
DateTime Wind Speed Rain Amount Rain Intensity Air Temperature Air Pressure Wind Direction Air Humidity
November 09, 2016 03:04 PM 4.9 0 mm 0 21.6 929.23 54 84.7
November 09, 2016 02:01 PM 8.8 0 mm 0 22.4 929.77 88 78.4
November 09, 2016 01:01 PM 13.8 0 mm 0 22.8 930.83 69 73.3
November 09, 2016 12:02 PM 5.7 0 mm 0 23.6 930.83 27 73.4
November 09, 2016 11:01 AM 17 0 mm 0 23.4 932.43 82 68.1
November 09, 2016 10:01 AM 14.2 0 mm 0 22.7 930.83 63 81
November 09, 2016 09:46 AM 5.9 0 mm 0 22 931.5 77 79.4
November 09, 2016 09:31 AM 11.9 0 mm 0 21.9 931.63 39 82.9
November 09, 2016 09:16 AM 9.5 0 mm 0 22.6 931.1 89 84.6
November 09, 2016 09:01 AM 7.8 0 mm 0 22.6 930.57 74 88.9
November 09, 2016 08:17 AM 10.1 0 mm 0 20.4 930.7 41 96.7
November 04, 2016 03:01 PM 11.5 0 mm 0 21.4 924.97 16 94.5
November 04, 2016 02:01 PM 7.7 0 mm 0 21.3 925.1 15 94.5
November 04, 2016 12:01 PM 12.2 0 mm 0 21 926.03 13 98.5
November 04, 2016 11:03 AM 5 0 mm 0 21.5 926.43 58 99.1
November 03, 2016 05:01 PM 18.5 0 mm 0 21.2 925.63 28 99.1
November 03, 2016 04:01 PM 9 0 mm 0 21 925.63 49 99
November 03, 2016 02:01 PM 6.8 0 mm 0 21.9 924.7 357 96.1
November 03, 2016 01:01 PM 12.3 0 mm 0 23.1 925.37 52 90.2
November 03, 2016 12:01 PM 9.1 0 mm 0 22.3 925.77 357 96.1
November 03, 2016 11:01 AM 12.5 0 mm 0 24.2 926.43 25 85.1
November 03, 2016 10:31 AM 15.1 0 mm 0 24.7 926.57 37 84.9
November 03, 2016 10:01 AM 14.1 0 mm 0 23.3 927.24 71 91.6
November 03, 2016 09:01 AM 11.8 0 mm 0 22.7 926.97 185 93.1
November 03, 2016 08:01 AM 7.6 0 mm 0 22 926.97 22 95.2
November 02, 2016 08:01 AM 14.2 0 mm 0 23.1 926.57 36 95.5
November 02, 2016 07:01 AM 13.9 0 mm 0 22.3 926.43 51 97.8
October 31, 2016 03:01 PM 5.1 0 mm 0 23.2 926.84 75 86.3
October 31, 2016 02:01 PM 11.3 0 mm 0 24.1 926.84 40 87.3
October 31, 2016 01:01 PM 9.5 0 mm 0.1 24.2 928.43 75 86.4